createdAt,value
2023-02-06T00:00:48.003Z,73.43
2023-02-06T00:03:14.625Z,73.09
2023-02-06T00:05:42.096Z,73.30
2023-02-06T00:08:08.986Z,73.06
2023-02-06T00:10:35.583Z,73.27
2023-02-06T00:13:02.310Z,73.46
2023-02-06T00:15:28.910Z,73.10
2023-02-06T00:17:55.478Z,73.19
2023-02-06T00:20:22.977Z,73.15
2023-02-06T00:22:51.124Z,73.14
2023-02-06T00:25:17.670Z,73.19
2023-02-06T00:27:44.321Z,73.60
2023-02-06T00:30:11.409Z,73.10
2023-02-06T00:32:38.294Z,73.02
2023-02-06T00:35:05.336Z,72.82
2023-02-06T00:37:31.938Z,73.30
2023-02-06T00:39:58.521Z,72.69
2023-02-06T00:42:25.331Z,72.51
2023-02-06T00:44:51.997Z,73.35
2023-02-06T00:47:18.686Z,73.01
2023-02-06T00:49:46.780Z,72.71
2023-02-06T00:52:13.381Z,73.00
2023-02-06T00:54:40.092Z,73.29
2023-02-06T00:57:07.372Z,72.72
2023-02-06T00:59:33.922Z,72.72
2023-02-06T01:02:00.576Z,72.86
2023-02-06T01:04:28.065Z,72.76
2023-02-06T01:06:54.632Z,72.50
2023-02-06T01:09:21.268Z,72.33
2023-02-06T01:11:48.622Z,72.07
2023-02-06T01:14:15.963Z,72.47
2023-02-06T01:16:42.887Z,72.45
2023-02-06T01:19:12.713Z,72.20
2023-02-06T01:21:40.511Z,72.03
2023-02-06T01:24:07.153Z,72.38
2023-02-06T01:26:33.771Z,72.83
2023-02-06T01:29:02.155Z,72.38
2023-02-06T01:31:30.111Z,72.42
2023-02-06T01:33:58.809Z,72.17
2023-02-06T01:36:25.401Z,72.45
2023-02-06T01:38:52.248Z,72.25
2023-02-06T01:41:21.648Z,73.11
2023-02-06T01:44:13.385Z,72.57
2023-02-06T01:46:41.624Z,72.59
2023-02-06T01:49:13.538Z,72.00
2023-02-06T01:51:41.025Z,72.54
2023-02-06T01:54:09.073Z,72.39
2023-02-06T01:56:45.156Z,72.72
2023-02-06T01:59:13.417Z,72.63
2023-02-06T02:01:41.031Z,72.44
2023-02-06T02:04:11.313Z,72.30
2023-02-06T02:06:40.446Z,72.56
2023-02-06T02:09:07.521Z,72.57
2023-02-06T02:11:37.333Z,72.87
2023-02-06T02:14:08.047Z,73.00
2023-02-06T02:17:00.172Z,73.08
2023-02-06T02:20:14.979Z,72.72
2023-02-06T02:22:48.110Z,72.83
2023-02-06T02:25:39.512Z,72.66
2023-02-06T02:28:24.669Z,72.50
2023-02-06T02:30:56.936Z,72.99
2023-02-06T02:34:00.973Z,72.90
2023-02-06T02:36:51.616Z,72.86
2023-02-06T02:39:47.944Z,72.70
2023-02-06T02:42:35.459Z,72.34
2023-02-06T02:45:16.242Z,72.80
2023-02-06T02:47:51.533Z,72.35
2023-02-06T02:50:18.722Z,72.08
2023-02-06T02:52:45.847Z,72.83
2023-02-06T02:55:22.454Z,72.36
2023-02-06T02:57:53.912Z,72.51
2023-02-06T03:00:24.294Z,72.58
2023-02-06T03:02:54.453Z,72.67
2023-02-06T03:05:25.742Z,72.91
2023-02-06T03:07:56.165Z,72.82
2023-02-06T03:11:01.613Z,73.03
2023-02-06T03:13:42.272Z,72.81
2023-02-06T03:16:19.590Z,72.85
2023-02-06T03:18:48.705Z,72.96
2023-02-06T03:21:19.955Z,72.69
2023-02-06T03:23:53.623Z,72.62
2023-02-06T03:26:23.744Z,72.58
2023-02-06T03:28:55.244Z,72.50
2023-02-06T03:31:28.732Z,72.64
2023-02-06T03:34:02.618Z,72.83
2023-02-06T03:36:29.343Z,72.78
2023-02-06T03:38:56.000Z,72.71
2023-02-06T03:41:30.652Z,72.70
2023-02-06T03:43:58.660Z,72.66
2023-02-06T03:46:28.807Z,72.62
2023-02-06T03:48:59.915Z,72.45
2023-02-06T03:51:31.280Z,72.50
2023-02-06T03:54:01.653Z,72.65
2023-02-06T03:56:32.180Z,72.60
2023-02-06T03:58:59.178Z,72.91
2023-02-06T04:01:27.441Z,72.98
2023-02-06T04:03:54.455Z,72.58
2023-02-06T04:06:21.160Z,72.04
2023-02-06T04:08:51.656Z,72.00
2023-02-06T04:11:18.212Z,71.96
2023-02-06T04:13:44.824Z,72.39
2023-02-06T04:16:11.448Z,72.78
2023-02-06T04:18:38.055Z,72.67
2023-02-06T04:21:08.622Z,72.72
2023-02-06T04:23:36.701Z,73.11
2023-02-06T04:26:03.346Z,72.95
2023-02-06T04:28:30.294Z,72.32
2023-02-06T04:30:57.076Z,72.79
2023-02-06T04:33:23.794Z,73.37
2023-02-06T04:35:50.611Z,73.37
2023-02-06T04:38:18.494Z,72.88
2023-02-06T04:40:45.154Z,73.31
2023-02-06T04:43:11.768Z,73.19
2023-02-06T04:45:38.791Z,72.55
2023-02-06T04:48:05.652Z,72.41
2023-02-06T04:50:34.330Z,72.65
2023-02-06T04:53:00.968Z,72.63
2023-02-06T04:55:27.811Z,72.88
2023-02-06T04:57:54.369Z,73.31
2023-02-06T05:00:21.149Z,73.39
2023-02-06T05:02:47.814Z,73.77
2023-02-06T05:05:15.036Z,73.47
2023-02-06T05:07:41.681Z,73.25
2023-02-06T05:10:09.382Z,72.92
2023-02-06T05:12:36.209Z,73.23
2023-02-06T05:15:04.776Z,72.77
2023-02-06T05:17:31.350Z,72.59
2023-02-06T05:19:58.567Z,73.16
2023-02-06T05:22:25.400Z,72.80
2023-02-06T05:24:51.969Z,72.60
2023-02-06T05:27:18.596Z,72.43
2023-02-06T05:29:45.201Z,72.41
2023-02-06T05:32:11.780Z,72.10
2023-02-06T05:34:38.340Z,72.11
2023-02-06T05:37:04.983Z,71.84
2023-02-06T05:39:31.601Z,72.01
2023-02-06T05:41:58.221Z,72.18
2023-02-06T05:44:26.431Z,72.29
2023-02-06T05:46:53.377Z,72.01
2023-02-06T05:49:19.936Z,71.97
2023-02-06T05:51:46.654Z,72.26
2023-02-06T05:54:15.356Z,71.71
2023-02-06T05:56:41.934Z,71.92
2023-02-06T05:59:08.959Z,72.12
2023-02-06T06:01:35.578Z,71.13
2023-02-06T06:04:02.225Z,71.29
2023-02-06T06:06:28.944Z,70.99
2023-02-06T06:08:55.486Z,70.83
2023-02-06T06:11:22.117Z,70.88
2023-02-06T06:13:48.864Z,70.86
2023-02-06T06:16:15.602Z,70.41
2023-02-06T06:18:42.216Z,70.14
2023-02-06T06:21:08.892Z,70.23
2023-02-06T06:23:36.388Z,69.89
2023-02-06T06:26:03.078Z,69.53
2023-02-06T06:28:29.812Z,69.70
2023-02-06T06:31:03.995Z,69.02
2023-02-06T06:33:30.825Z,69.13
2023-02-06T06:35:57.531Z,69.23
2023-02-06T06:38:24.103Z,69.12
2023-02-06T06:40:51.943Z,68.84
2023-02-06T06:43:18.788Z,68.78
2023-02-06T06:45:45.407Z,68.58
2023-02-06T06:48:12.377Z,69.35
2023-02-06T06:50:39.132Z,68.77
2023-02-06T06:53:05.935Z,68.06
2023-02-06T06:55:34.696Z,68.58
2023-02-06T06:58:01.575Z,67.75
2023-02-06T07:00:28.500Z,68.09
2023-02-06T07:02:55.176Z,67.73
2023-02-06T07:05:21.767Z,67.34
2023-02-06T07:07:48.368Z,67.22
2023-02-06T07:10:15.905Z,66.90
2023-02-06T07:12:42.583Z,67.44
2023-02-06T07:15:09.573Z,67.64
2023-02-06T07:17:36.977Z,67.22
2023-02-06T07:20:03.817Z,66.55
2023-02-06T07:22:33.013Z,67.01
2023-02-06T07:25:01.963Z,66.33
2023-02-06T07:27:28.620Z,66.54
2023-02-06T07:29:55.164Z,67.06
2023-02-06T07:32:21.777Z,66.84
2023-02-06T07:34:48.375Z,66.57
2023-02-06T07:37:15.007Z,67.07
2023-02-06T07:39:42.342Z,66.97
2023-02-06T07:42:09.004Z,67.31
2023-02-06T07:44:35.580Z,66.29
2023-02-06T07:47:02.928Z,66.20
2023-02-06T07:49:29.564Z,66.15
2023-02-06T07:51:56.166Z,65.78
2023-02-06T07:54:23.629Z,65.60
2023-02-06T07:56:50.276Z,65.69
2023-02-06T07:59:18.593Z,65.25
2023-02-06T08:01:45.238Z,65.41
2023-02-06T08:04:11.895Z,64.42
2023-02-06T08:06:42.191Z,64.43
2023-02-06T08:09:12.872Z,64.79
2023-02-06T08:11:39.426Z,63.82
2023-02-06T08:14:06.212Z,64.12
2023-02-06T08:16:32.966Z,64.91
2023-02-06T08:18:59.554Z,64.74
2023-02-06T08:21:28.321Z,65.40
2023-02-06T08:24:00.813Z,65.20
2023-02-06T08:26:29.529Z,64.26
2023-02-06T08:28:57.557Z,65.08
2023-02-06T08:31:32.147Z,65.01
2023-02-06T08:33:59.334Z,65.34
2023-02-06T08:36:26.686Z,64.51
2023-02-06T08:38:54.117Z,63.57
2023-02-06T08:41:37.166Z,64.23
2023-02-06T08:44:11.780Z,64.63
2023-02-06T08:46:39.515Z,63.56
2023-02-06T08:49:11.287Z,62.92
2023-02-06T08:51:38.128Z,64.58
2023-02-06T08:54:07.786Z,64.05
2023-02-06T08:56:35.904Z,64.07
2023-02-06T08:59:04.141Z,63.32
2023-02-06T09:01:33.652Z,64.53
2023-02-06T09:04:07.297Z,64.17
2023-02-06T09:06:40.109Z,64.29
2023-02-06T09:09:08.549Z,63.62
2023-02-06T09:11:35.512Z,64.25
2023-02-06T09:14:04.188Z,63.55
2023-02-06T09:16:33.593Z,63.46
2023-02-06T09:19:01.601Z,63.45
2023-02-06T09:21:34.117Z,63.16
2023-02-06T09:24:08.169Z,63.47
2023-02-06T09:26:53.461Z,64.27
2023-02-06T09:29:24.262Z,63.99
2023-02-06T09:31:50.917Z,64.02
2023-02-06T09:34:17.542Z,64.21
2023-02-06T09:36:44.282Z,65.12
2023-02-06T09:39:10.917Z,63.40
2023-02-06T09:41:45.449Z,62.87
2023-02-06T09:44:27.438Z,62.65
2023-02-06T09:47:27.157Z,63.45
2023-02-06T09:50:05.544Z,64.65
2023-02-06T09:52:44.162Z,64.53
2023-02-06T09:55:41.193Z,63.75
2023-02-06T09:58:30.248Z,64.13
2023-02-06T10:01:03.163Z,62.78
2023-02-06T10:03:58.051Z,63.46
2023-02-06T10:06:30.137Z,63.84
2023-02-06T10:09:11.641Z,63.50
2023-02-06T10:11:54.458Z,64.12
2023-02-06T10:14:42.605Z,63.23
2023-02-06T10:17:28.991Z,63.26
2023-02-06T10:20:02.785Z,63.87
2023-02-06T10:23:15.519Z,62.98
2023-02-06T10:26:05.108Z,62.69
2023-02-06T10:28:35.422Z,63.58
2023-02-06T10:31:14.550Z,63.66
2023-02-06T10:33:41.107Z,64.13
2023-02-06T10:36:22.118Z,64.25
2023-02-06T10:39:06.063Z,63.83
2023-02-06T10:41:42.787Z,64.22
2023-02-06T10:44:31.927Z,64.20
2023-02-06T10:46:58.900Z,63.31
2023-02-06T10:49:45.247Z,63.18
2023-02-06T10:52:28.289Z,63.51
2023-02-06T10:55:19.471Z,63.16
2023-02-06T10:57:49.381Z,63.51
2023-02-06T11:00:25.482Z,64.00
2023-02-06T11:03:07.655Z,63.40
2023-02-06T11:05:36.044Z,63.96
2023-02-06T11:08:25.389Z,63.60
2023-02-06T11:10:52.335Z,64.27
2023-02-06T11:13:28.113Z,64.33
2023-02-06T11:16:02.742Z,63.33
2023-02-06T11:18:40.085Z,63.07
2023-02-06T11:21:10.322Z,64.48
2023-02-06T11:23:36.938Z,64.25
2023-02-06T11:26:06.253Z,63.64
2023-02-06T11:28:35.702Z,63.90
2023-02-06T11:31:06.212Z,64.45
2023-02-06T11:33:56.309Z,63.68
2023-02-06T11:36:30.782Z,63.76
2023-02-06T11:39:04.721Z,63.86
2023-02-06T11:41:31.752Z,63.65
2023-02-06T11:44:06.387Z,63.52
2023-02-06T11:46:38.908Z,64.33
2023-02-06T11:49:29.148Z,64.14
2023-02-06T11:52:00.845Z,63.99
2023-02-06T11:54:30.251Z,64.63
2023-02-06T11:57:04.013Z,64.58
2023-02-06T11:59:35.246Z,64.43
2023-02-06T12:02:22.268Z,64.42
2023-02-06T12:04:50.334Z,65.01
2023-02-06T12:07:30.105Z,65.30
2023-02-06T12:09:57.440Z,65.20
2023-02-06T12:12:30.634Z,64.92
2023-02-06T12:15:23.551Z,64.43
2023-02-06T12:18:00.063Z,64.58
2023-02-06T12:20:35.460Z,65.27
2023-02-06T12:23:37.191Z,66.09
2023-02-06T12:26:12.845Z,65.54
2023-02-06T12:29:19.962Z,64.41
2023-02-06T12:32:00.925Z,64.42
2023-02-06T12:34:48.676Z,64.31
2023-02-06T12:37:22.197Z,64.30
2023-02-06T12:39:51.463Z,64.04
2023-02-06T12:42:21.099Z,64.53
2023-02-06T12:44:53.642Z,65.07
2023-02-06T12:47:20.151Z,65.23
2023-02-06T12:50:17.494Z,65.53
2023-02-06T12:52:43.914Z,65.25
2023-02-06T12:55:38.050Z,65.78
2023-02-06T12:58:20.881Z,65.62
2023-02-06T13:01:25.832Z,65.18
2023-02-06T13:04:04.714Z,64.96
2023-02-06T13:07:06.608Z,65.95
2023-02-06T13:09:37.318Z,65.64
2023-02-06T13:12:16.526Z,65.94
2023-02-06T13:14:48.995Z,66.58
2023-02-06T13:17:23.144Z,66.96
2023-02-06T13:19:53.543Z,66.76
2023-02-06T13:22:43.582Z,67.42
2023-02-06T13:25:25.111Z,67.18
2023-02-06T13:28:22.663Z,67.16
2023-02-06T13:30:59.981Z,67.81
2023-02-06T13:33:58.903Z,67.47
2023-02-06T13:36:41.620Z,67.77
2023-02-06T13:39:32.350Z,67.84
2023-02-06T13:42:22.011Z,68.14
2023-02-06T13:44:49.372Z,68.19
2023-02-06T13:47:48.723Z,68.09
2023-02-06T13:50:24.588Z,68.24
2023-02-06T13:53:07.756Z,67.99
2023-02-06T13:56:09.536Z,68.76
2023-02-06T13:58:45.814Z,68.55
2023-02-06T14:01:15.688Z,69.09
2023-02-06T14:03:46.148Z,69.30
2023-02-06T14:06:40.498Z,69.48
2023-02-06T14:09:30.660Z,70.01
2023-02-06T14:12:31.122Z,69.73
2023-02-06T14:15:12.328Z,69.97
2023-02-06T14:17:51.719Z,70.10
2023-02-06T14:20:28.272Z,69.89
2023-02-06T14:23:30.184Z,69.89
2023-02-06T14:26:06.336Z,70.14
2023-02-06T14:28:53.181Z,70.29
2023-02-06T14:32:01.693Z,70.30
2023-02-06T14:34:35.327Z,70.60
2023-02-06T14:37:30.904Z,70.67
2023-02-06T14:40:04.477Z,70.81
2023-02-06T14:42:40.922Z,70.27
2023-02-06T14:45:24.751Z,70.37
2023-02-06T14:47:53.085Z,70.50
2023-02-06T14:50:24.294Z,70.87
2023-02-06T14:53:04.216Z,71.08
2023-02-06T14:55:36.037Z,71.26
2023-02-06T14:58:04.172Z,71.40
2023-02-06T15:00:32.051Z,71.30
2023-02-06T15:03:15.790Z,72.06
2023-02-06T15:05:43.994Z,71.54
2023-02-06T15:08:19.338Z,71.44
2023-02-06T15:10:47.746Z,71.26
2023-02-06T15:13:22.996Z,71.19
2023-02-06T15:15:57.750Z,71.51
2023-02-06T15:18:24.395Z,71.17
2023-02-06T15:21:14.537Z,71.32
2023-02-06T15:23:59.672Z,71.67
2023-02-06T15:27:03.032Z,72.24
2023-02-06T15:29:29.863Z,71.53
2023-02-06T15:32:05.381Z,71.76
2023-02-06T15:34:32.469Z,72.06
2023-02-06T15:36:59.058Z,71.40
2023-02-06T15:39:26.371Z,71.40
2023-02-06T15:41:53.991Z,71.94
2023-02-06T15:44:34.850Z,71.99
2023-02-06T15:47:04.865Z,72.38
2023-02-06T15:49:36.746Z,72.35
2023-02-06T15:52:04.772Z,72.80
2023-02-06T15:54:32.219Z,72.73
2023-02-06T15:57:05.743Z,72.65
2023-02-06T15:59:35.879Z,72.91
2023-02-06T16:02:04.294Z,73.02
2023-02-06T16:04:35.710Z,72.86
2023-02-06T16:07:24.980Z,73.13
2023-02-06T16:09:55.113Z,72.76
2023-02-06T16:12:22.717Z,72.37
2023-02-06T16:14:58.895Z,72.57
2023-02-06T16:17:35.012Z,72.52
2023-02-06T16:20:24.287Z,72.44
2023-02-06T16:22:58.546Z,72.65
2023-02-06T16:25:33.575Z,72.56
2023-02-06T16:28:00.371Z,73.24
2023-02-06T16:30:37.842Z,73.66
2023-02-06T16:36:30.201Z,73.48
2023-02-06T16:39:03.733Z,73.09
2023-02-06T16:41:36.616Z,73.24
2023-02-06T16:44:07.041Z,72.92
2023-02-06T16:46:33.685Z,72.94
2023-02-06T16:49:00.868Z,73.43
2023-02-06T16:51:30.081Z,73.01
2023-02-06T16:54:00.472Z,73.22
2023-02-06T16:56:27.219Z,73.22
2023-02-06T16:58:53.773Z,73.37
2023-02-06T17:01:26.609Z,73.68
2023-02-06T17:03:55.265Z,73.96
2023-02-06T17:06:25.919Z,73.53
2023-02-06T17:08:55.740Z,73.49
2023-02-06T17:11:22.367Z,73.64
2023-02-06T17:13:49.097Z,73.78
2023-02-06T17:16:28.001Z,73.60
2023-02-06T17:18:55.319Z,73.62
2023-02-06T17:21:24.041Z,73.99
2023-02-06T17:23:52.251Z,74.18
2023-02-06T17:26:21.985Z,74.04
2023-02-06T17:28:49.772Z,73.73
2023-02-06T17:31:18.013Z,74.18
2023-02-06T17:33:44.741Z,73.76
2023-02-06T17:36:30.689Z,73.98
2023-02-06T17:39:00.520Z,73.35
2023-02-06T17:41:27.683Z,72.73
2023-02-06T17:43:55.674Z,72.81
2023-02-06T17:46:22.819Z,72.38
2023-02-06T17:48:49.724Z,72.55
2023-02-06T17:51:16.966Z,72.31
2023-02-06T17:53:43.706Z,72.54
2023-02-06T17:56:13.006Z,72.95
2023-02-06T17:58:44.196Z,72.89
2023-02-06T18:01:17.047Z,72.59
2023-02-06T18:03:45.034Z,72.57
2023-02-06T18:06:17.739Z,72.71
2023-02-06T18:08:44.509Z,72.69
2023-02-06T18:11:18.047Z,72.69
2023-02-06T18:13:46.940Z,72.80
2023-02-06T18:16:22.058Z,72.48
2023-02-06T18:18:50.079Z,72.06
2023-02-06T18:21:20.164Z,72.44
2023-02-06T18:23:48.276Z,73.09
2023-02-06T18:26:15.436Z,73.25
2023-02-06T18:28:42.060Z,73.11
2023-02-06T18:34:45.053Z,73.30
2023-02-06T18:37:11.679Z,73.28
2023-02-06T18:39:46.927Z,72.82
2023-02-06T18:42:32.090Z,73.12
2023-02-06T18:45:06.251Z,72.94
2023-02-06T18:47:33.115Z,72.63
2023-02-06T18:49:59.827Z,72.89
2023-02-06T18:52:26.388Z,72.63
2023-02-06T18:54:52.999Z,73.20
2023-02-06T18:57:19.588Z,73.13
2023-02-06T18:59:46.185Z,73.39
2023-02-06T19:02:12.973Z,73.21
2023-02-06T19:04:40.665Z,73.23
2023-02-06T19:07:08.816Z,73.28
2023-02-06T19:09:35.470Z,72.81
2023-02-06T19:12:02.086Z,73.37
2023-02-06T19:14:28.687Z,73.48
2023-02-06T19:16:55.349Z,73.42
2023-02-06T19:19:21.961Z,73.13
2023-02-06T19:21:49.816Z,73.27
2023-02-06T19:24:18.796Z,73.43
2023-02-06T19:26:45.589Z,73.39
2023-02-06T19:29:14.970Z,73.11
2023-02-06T19:31:43.907Z,73.00
2023-02-06T19:34:10.611Z,73.74
2023-02-06T19:36:37.374Z,73.26
2023-02-06T19:39:21.296Z,72.98
2023-02-06T19:41:47.898Z,73.72
2023-02-06T19:44:15.159Z,73.50
2023-02-06T19:46:41.754Z,73.37
2023-02-06T19:49:08.844Z,73.27
2023-02-06T19:51:39.145Z,73.24
2023-02-06T19:54:06.218Z,73.56
2023-02-06T19:56:54.959Z,73.28
2023-02-06T19:59:27.653Z,73.43
2023-02-06T20:01:57.679Z,73.00
2023-02-06T20:04:31.103Z,73.14
2023-02-06T20:06:59.156Z,73.16
2023-02-06T20:09:28.270Z,73.62
2023-02-06T20:11:55.362Z,73.03
2023-02-06T20:14:22.797Z,73.37
2023-02-06T20:16:49.733Z,73.98
2023-02-06T20:19:23.388Z,73.50
2023-02-06T20:21:55.038Z,73.70
2023-02-06T20:24:24.366Z,73.76
2023-02-06T20:26:55.755Z,73.38
2023-02-06T20:29:43.194Z,73.91
2023-02-06T20:32:11.266Z,73.40
2023-02-06T20:34:51.812Z,73.71
2023-02-06T20:37:18.574Z,73.85
2023-02-06T20:39:45.263Z,73.66
2023-02-06T20:42:11.844Z,73.48
2023-02-06T20:44:38.441Z,73.72
2023-02-06T20:47:05.040Z,73.92
2023-02-06T20:49:31.716Z,73.54
2023-02-06T20:51:58.376Z,73.53
2023-02-06T20:54:25.908Z,73.67
2023-02-06T20:56:52.644Z,73.79
2023-02-06T20:59:21.119Z,72.58
2023-02-06T21:01:48.189Z,73.00
2023-02-06T21:04:16.453Z,72.40
2023-02-06T21:06:44.825Z,72.52
2023-02-06T21:09:11.995Z,73.06
2023-02-06T21:11:46.209Z,73.26
2023-02-06T21:14:14.094Z,73.71
2023-02-06T21:16:42.436Z,73.02
2023-02-06T21:19:10.978Z,73.68
2023-02-06T21:21:46.308Z,74.00
2023-02-06T21:24:14.282Z,73.96
2023-02-06T21:26:41.351Z,74.04
2023-02-06T21:29:08.232Z,73.86
2023-02-06T21:31:38.601Z,73.96
2023-02-06T21:34:12.506Z,73.96
2023-02-06T21:36:40.302Z,73.69
2023-02-06T21:39:08.079Z,73.19
2023-02-06T21:41:35.826Z,73.58
2023-02-06T21:44:02.529Z,73.58
2023-02-06T21:46:30.999Z,73.72
2023-02-06T21:48:58.614Z,73.38
2023-02-06T21:51:25.397Z,73.82
2023-02-06T21:53:51.953Z,74.05
2023-02-06T21:56:24.273Z,74.37
2023-02-06T21:58:52.397Z,74.09
2023-02-06T22:01:25.474Z,74.50
2023-02-06T22:03:52.506Z,73.95
2023-02-06T22:06:20.198Z,74.31
2023-02-06T22:08:51.656Z,74.42
2023-02-06T22:11:22.499Z,73.83
2023-02-06T22:13:49.778Z,73.92
2023-02-06T22:16:22.493Z,74.20
2023-02-06T22:18:50.287Z,74.23
2023-02-06T22:21:19.964Z,74.07
2023-02-06T22:23:48.155Z,74.80
2023-02-06T22:26:17.006Z,74.56
2023-02-06T22:28:44.701Z,74.50
2023-02-06T22:31:17.663Z,74.99
2023-02-06T22:33:45.203Z,75.13
2023-02-06T22:36:14.388Z,76.05
2023-02-06T22:38:42.475Z,75.64
2023-02-06T22:41:12.921Z,75.32
2023-02-06T22:43:39.781Z,75.66
2023-02-06T22:46:08.671Z,75.03
2023-02-06T22:48:36.082Z,75.58
2023-02-06T22:51:08.215Z,75.40
2023-02-06T22:53:36.427Z,75.73
2023-02-06T22:56:29.608Z,75.88
2023-02-06T22:58:57.506Z,76.45
2023-02-06T23:01:26.866Z,76.29
2023-02-06T23:03:54.738Z,76.07
2023-02-06T23:06:24.234Z,76.40
2023-02-06T23:08:50.921Z,76.40
2023-02-06T23:11:17.569Z,76.30
2023-02-06T23:13:44.211Z,76.36
2023-02-06T23:16:11.652Z,76.33
2023-02-06T23:18:38.516Z,75.78
2023-02-06T23:21:12.626Z,76.24
2023-02-06T23:23:41.392Z,76.14
2023-02-06T23:26:10.405Z,76.69
2023-02-06T23:28:38.475Z,76.32
2023-02-06T23:31:06.294Z,76.71
2023-02-06T23:33:33.995Z,76.76
2023-02-06T23:36:12.256Z,76.83
2023-02-06T23:38:39.618Z,77.26
2023-02-06T23:41:12.253Z,77.00
2023-02-06T23:43:39.789Z,76.95
2023-02-06T23:46:10.958Z,77.08
2023-02-06T23:48:39.110Z,76.89
2023-02-06T23:51:05.917Z,77.59
2023-02-06T23:53:32.605Z,77.67
2023-02-06T23:55:59.201Z,77.59
2023-02-06T23:58:26.531Z,77.35
